Time;durP1;ratioP1;P1;durP2;ratioP2;P2;SDS_P1;SDS_P2;PMS_P1;PMS_P2;Temp;Humidity;BMP_temperature;BMP_pressure;BME280_temperature;BME280_humidity;BME280_pressure;Samples;Min_cycle;Max_cycle;Signal;HPM_P1;HPM_P2
2021/08/19 00:00:30;;;;;;;;;;;;;;;28.17;39.33;97344.94;5067358;28;1309;-62
2021/08/19 00:02:55;;;;;;;;;;;;;;;28.39;38.64;97345.63;5070839;28;1159;-62
2021/08/19 00:05:20;;;;;;;;;;;;;;;28.18;39.36;97341.31;5068123;28;1305;-63
2021/08/19 00:07:46;;;;;;;;;;;;;;;28.36;39.01;97344.94;5068835;28;1525;-63
2021/08/19 00:10:12;;;;;;;;;;;;;;;28.18;39.41;97340.47;5068887;28;1444;-62
2021/08/19 00:12:37;;;;;;;;;;;;;;;28.31;38.94;97336.56;5069161;28;1604;-62
2021/08/19 00:15:02;;;;;;;;;;;;;;;28.35;38.79;97342.41;5068935;28;1917;-62
2021/08/19 00:17:27;;;;;;;;;;;;;;;28.21;39.29;97335.72;5070311;28;1197;-62
2021/08/19 00:19:52;;;;;;;;;;;;;;;28.37;38.80;97329.88;5069541;28;1147;-62
2021/08/19 00:22:18;;;;;;;;;;;;;;;28.23;39.11;97335.59;5068733;28;1591;-62
2021/08/19 00:24:43;;;;;;;;;;;;;;;28.09;39.54;97336.84;5068022;28;1253;-62
2021/08/19 00:27:08;;;;;;;;;;;;;;;28.29;38.83;97332.38;5067555;28;1658;-62
2021/08/19 00:29:33;;;;;;;;;;;;;;;28.20;39.19;97327.91;5068558;28;1442;-63
2021/08/19 00:32:01;;;;;;;;;;;;;;;28.13;39.39;97332.97;5070367;28;1111;-62
2021/08/19 00:34:26;;;;;;;;;;;;;;;28.05;39.36;97323.06;5069393;28;1183;-63
2021/08/19 00:36:53;;;;;;;;;;;;;;;28.19;39.07;97327.06;5068090;28;1971;-62
2021/08/19 00:39:19;;;;;;;;;;;;;;;28.10;39.27;97323.44;5066491;28;1350;-61
2021/08/19 00:41:44;;;;;;;;;;;;;;;28.17;39.30;97315.78;5069049;28;1210;-62
2021/08/19 00:44:09;;;;;;;;;;;;;;;28.06;39.54;97316.78;5064577;28;1662;-61
2021/08/19 00:46:35;;;;;;;;;;;;;;;28.25;39.08;97315.06;5068379;28;1203;-62
2021/08/19 00:49:06;;;;;;;;;;;;;;;28.16;39.49;97314.09;5066982;28;1365;-62
2021/08/19 00:51:38;;;;;;;;;;;;;;;28.08;39.60;97312.16;5067400;28;1397;-62
2021/08/19 00:54:04;;;;;;;;;;;;;;;28.27;39.19;97310.44;5064898;28;1642;-63
2021/08/19 00:56:29;;;;;;;;;;;;;;;28.14;39.03;97320.53;5058927;28;1968;-62
2021/08/19 00:58:57;;;;;;;;;;;;;;;28.25;39.05;97318.53;5060209;28;1578;-63
2021/08/19 01:01:22;;;;;;;;;;;;;;;28.32;38.79;97311.72;5064105;28;1325;-63
2021/08/19 01:03:47;;;;;;;;;;;;;;;28.20;39.36;97311.97;5062734;28;1599;-63
2021/08/19 01:06:12;;;;;;;;;;;;;;;28.09;39.37;97313.84;5068270;28;1310;-62
2021/08/19 01:08:37;;;;;;;;;;;;;;;28.20;39.16;97309.34;5069929;28;1255;-62
2021/08/19 01:11:03;;;;;;;;;;;;;;;28.20;39.28;97312.84;5069101;28;1365;-62
2021/08/19 01:13:28;;;;;;;;;;;;;;;28.26;39.24;97306.94;5054787;28;1616;-62
2021/08/19 01:15:53;;;;;;;;;;;;;;;27.95;39.60;97303.66;5057432;28;1969;-63
2021/08/19 01:18:18;;;;;;;;;;;;;;;28.15;39.21;97304.47;5068994;28;1154;-62
2021/08/19 01:20:43;;;;;;;;;;;;;;;28.17;39.28;97301.69;5066911;28;1529;-62
2021/08/19 01:23:09;;;;;;;;;;;;;;;28.12;39.07;97301.25;5066278;28;1405;-62
2021/08/19 01:25:34;;;;;;;;;;;;;;;28.26;39.12;97316.72;5067177;28;1327;-63
2021/08/19 01:27:59;;;;;;;;;;;;;;;28.30;38.73;97315.50;5067875;28;1591;-62
2021/08/19 01:30:25;;;;;;;;;;;;;;;27.86;40.00;97312.47;5066495;28;2124;-61
2021/08/19 01:32:50;;;;;;;;;;;;;;;28.08;39.33;97309.50;5067495;28;1164;-62
2021/08/19 01:35:21;;;;;;;;;;;;;;;28.35;38.77;97313.22;5068509;28;1910;-63
2021/08/19 01:37:46;;;;;;;;;;;;;;;28.13;39.04;97314.41;5069953;28;1286;-62
2021/08/19 01:40:13;;;;;;;;;;;;;;;28.13;39.11;97310.91;5067777;28;1576;-62
2021/08/19 01:42:38;;;;;;;;;;;;;;;28.08;39.27;97311.31;5065401;28;1556;-62
2021/08/19 01:45:03;;;;;;;;;;;;;;;28.18;39.01;97316.59;5065533;28;1713;-60
2021/08/19 01:47:29;;;;;;;;;;;;;;;28.11;39.51;97313.69;5068041;28;1191;-63
2021/08/19 01:49:55;;;;;;;;;;;;;;;28.18;39.09;97306.00;5068788;28;1327;-62
2021/08/19 01:52:20;;;;;;;;;;;;;;;28.24;39.22;97310.72;5066402;28;1564;-62
2021/08/19 01:54:45;;;;;;;;;;;;;;;28.42;38.68;97311.69;5069348;28;1254;-62
2021/08/19 01:57:10;;;;;;;;;;;;;;;28.14;39.45;97312.59;5067168;28;1894;-63
2021/08/19 01:59:35;;;;;;;;;;;;;;;28.32;38.78;97314.38;5068258;28;1338;-63
2021/08/19 02:02:01;;;;;;;;;;;;;;;28.05;39.54;97312.47;5071632;28;1309;-62
2021/08/19 02:04:26;;;;;;;;;;;;;;;27.96;39.65;97304.50;5067284;28;2048;-61
2021/08/19 02:06:51;;;;;;;;;;;;;;;28.31;39.10;97309.22;5072727;28;1140;-63
2021/08/19 02:09:16;;;;;;;;;;;;;;;27.96;39.54;97305.34;5071435;28;1210;-62
2021/08/19 02:11:42;;;;;;;;;;;;;;;28.12;39.43;97304.75;5071332;28;1320;-62
2021/08/19 02:14:07;;;;;;;;;;;;;;;28.18;39.30;97298.03;5069015;28;1667;-63
2021/08/19 02:16:32;;;;;;;;;;;;;;;28.01;39.36;97296.97;5072795;28;1901;-63
2021/08/19 02:18:57;;;;;;;;;;;;;;;28.12;39.08;97303.91;5071311;28;1262;-62
2021/08/19 02:21:23;;;;;;;;;;;;;;;28.09;39.40;97297.91;5071687;28;1518;-62
2021/08/19 02:23:48;;;;;;;;;;;;;;;28.16;39.48;97302.66;5061486;28;1273;-63
2021/08/19 02:26:13;;;;;;;;;;;;;;;28.21;39.36;97303.91;5072490;28;1104;-63
2021/08/19 02:28:38;;;;;;;;;;;;;;;28.02;39.31;97299.47;5070515;28;1599;-63
2021/08/19 02:31:03;;;;;;;;;;;;;;;28.18;39.10;97303.34;5071898;28;1381;-64
2021/08/19 02:33:29;;;;;;;;;;;;;;;28.32;38.75;97301.09;5071369;28;1116;-64
2021/08/19 02:35:54;;;;;;;;;;;;;;;28.14;39.35;97305.47;5071313;28;1971;-63
2021/08/19 02:38:19;;;;;;;;;;;;;;;28.07;39.27;97307.84;5070762;28;1501;-63
2021/08/19 02:40:44;;;;;;;;;;;;;;;28.29;38.97;97306.72;5071722;28;1365;-63
2021/08/19 02:43:09;;;;;;;;;;;;;;;28.47;38.72;97304.13;5068697;28;1584;-63
2021/08/19 02:45:35;;;;;;;;;;;;;;;27.87;39.77;97306.19;5070895;28;1179;-64
2021/08/19 02:48:00;;;;;;;;;;;;;;;28.13;39.24;97302.97;5055083;28;1585;-64
2021/08/19 02:50:25;;;;;;;;;;;;;;;28.08;39.16;97300.72;5071313;28;1289;-63
2021/08/19 02:52:51;;;;;;;;;;;;;;;28.00;39.33;97288.19;5070407;28;1239;-63
2021/08/19 02:55:16;;;;;;;;;;;;;;;28.32;39.02;97285.19;5068878;28;1937;-63
2021/08/19 02:57:41;;;;;;;;;;;;;;;27.97;39.57;97298.25;5069529;28;1663;-64
2021/08/19 03:00:07;;;;;;;;;;;;;;;28.10;39.24;97294.28;5070273;28;1401;-63
2021/08/19 03:02:32;;;;;;;;;;;;;;;28.08;39.46;97288.31;5071043;28;1178;-64
2021/08/19 03:04:57;;;;;;;;;;;;;;;28.19;39.08;97283.81;5069797;28;1568;-64
2021/08/19 03:07:23;;;;;;;;;;;;;;;28.21;39.19;97281.88;5071649;28;1266;-64
2021/08/19 03:09:48;;;;;;;;;;;;;;;28.08;39.19;97283.00;5069791;28;1366;-65
2021/08/19 03:12:14;;;;;;;;;;;;;;;28.07;39.45;97283.97;5070649;28;1600;-63
2021/08/19 03:14:39;;;;;;;;;;;;;;;28.33;38.72;97281.56;5070271;28;1249;-64
2021/08/19 03:17:04;;;;;;;;;;;;;;;28.04;39.60;97286.94;5069652;28;1898;-64
2021/08/19 03:19:29;;;;;;;;;;;;;;;28.08;39.45;97285.66;5070229;28;1609;-64
2021/08/19 03:21:54;;;;;;;;;;;;;;;28.03;39.17;97284.41;5068659;28;1571;-64
2021/08/19 03:24:20;;;;;;;;;;;;;;;27.96;39.81;97286.78;5071026;28;1226;-64
2021/08/19 03:26:45;;;;;;;;;;;;;;;28.00;39.50;97290.00;5070771;28;1259;-63
2021/08/19 03:29:11;;;;;;;;;;;;;;;28.15;39.23;97298.34;5069634;28;1659;-63
2021/08/19 03:31:36;;;;;;;;;;;;;;;28.27;38.98;97289.22;5065299;28;2009;-63
2021/08/19 03:34:04;;;;;;;;;;;;;;;28.19;39.02;97292.59;5071153;28;1094;-64
2021/08/19 03:36:29;;;;;;;;;;;;;;;28.05;39.41;97296.56;5069380;28;1921;-64
2021/08/19 03:38:54;;;;;;;;;;;;;;;27.93;39.45;97300.31;5070530;28;1323;-63
2021/08/19 03:41:21;;;;;;;;;;;;;;;28.12;39.19;97304.75;5067983;28;1834;-63
2021/08/19 03:43:46;;;;;;;;;;;;;;;28.09;39.32;97302.41;5067684;28;1643;-63
2021/08/19 03:46:11;;;;;;;;;;;;;;;27.94;39.74;97296.69;5069960;28;1155;-62
2021/08/19 03:48:36;;;;;;;;;;;;;;;27.95;39.48;97297.53;5070200;28;1202;-64
2021/08/19 03:51:03;;;;;;;;;;;;;;;28.23;39.24;97299.28;5069972;28;1592;-64
2021/08/19 03:53:28;;;;;;;;;;;;;;;28.03;39.43;97306.44;5069559;28;1477;-64
2021/08/19 03:55:53;;;;;;;;;;;;;;;28.14;38.99;97304.63;5069154;28;1883;-65
2021/08/19 03:58:19;;;;;;;;;;;;;;;28.17;39.05;97299.03;5065155;28;1465;-63
2021/08/19 04:00:46;;;;;;;;;;;;;;;28.13;39.25;97300.31;5068478;28;1294;-64
2021/08/19 04:03:11;;;;;;;;;;;;;;;28.16;38.86;97300.84;5067130;28;1370;-62
2021/08/19 04:05:36;;;;;;;;;;;;;;;27.99;39.62;97297.13;5070820;28;1167;-64
2021/08/19 04:08:01;;;;;;;;;;;;;;;28.21;39.06;97295.97;5068711;28;1644;-63
2021/08/19 04:10:27;;;;;;;;;;;;;;;28.21;38.90;97287.16;5068946;28;1372;-64
2021/08/19 04:12:52;;;;;;;;;;;;;;;28.19;39.07;97295.25;5068478;28;1592;-62
2021/08/19 04:15:17;;;;;;;;;;;;;;;28.12;39.33;97298.59;5066959;28;1950;-64
2021/08/19 04:17:42;;;;;;;;;;;;;;;28.12;39.26;97293.31;5069056;28;1028;-64
2021/08/19 04:20:08;;;;;;;;;;;;;;;28.29;38.83;97300.53;5068396;28;1295;-63
2021/08/19 04:22:33;;;;;;;;;;;;;;;28.19;39.21;97295.25;5070070;28;1021;-64
2021/08/19 04:24:58;;;;;;;;;;;;;;;28.08;39.26;97298.91;5067374;28;1572;-63
2021/08/19 04:27:23;;;;;;;;;;;;;;;27.95;39.58;97292.22;5068189;28;1695;-64
2021/08/19 04:29:48;;;;;;;;;;;;;;;28.15;39.25;97293.03;5068529;28;1491;-63
2021/08/19 04:32:14;;;;;;;;;;;;;;;27.97;39.59;97301.72;5068228;28;1095;-64
2021/08/19 04:34:40;;;;;;;;;;;;;;;28.30;38.67;97302.25;5069247;28;1406;-63
2021/08/19 04:37:05;;;;;;;;;;;;;;;28.17;39.46;97297.22;5069019;28;1910;-64
2021/08/19 04:39:30;;;;;;;;;;;;;;;28.09;39.29;97299.75;5068607;28;1269;-64
2021/08/19 04:41:55;;;;;;;;;;;;;;;28.21;39.06;97288.00;5070000;28;1230;-63
2021/08/19 04:44:21;;;;;;;;;;;;;;;28.19;39.11;97297.91;5064086;28;1568;-63
2021/08/19 04:46:46;;;;;;;;;;;;;;;28.12;39.21;97293.31;5069811;28;1152;-63
2021/08/19 04:49:11;;;;;;;;;;;;;;;28.01;39.70;97292.50;5068713;28;1319;-64
2021/08/19 04:51:36;;;;;;;;;;;;;;;28.06;39.30;97295.56;5069414;28;1177;-64
2021/08/19 04:54:02;;;;;;;;;;;;;;;28.12;39.24;97296.78;5067601;28;1602;-64
2021/08/19 04:56:36;;;;;;;;;;;;;;;28.07;39.42;97301.72;5068544;28;1914;-63
2021/08/19 04:59:04;;;;;;;;;;;;;;;28.05;39.50;97298.38;5068082;28;1904;-65
2021/08/19 05:01:29;;;;;;;;;;;;;;;28.08;39.10;97300.72;5067790;28;1440;-63
2021/08/19 05:03:54;;;;;;;;;;;;;;;28.06;39.64;97300.88;5069233;28;1068;-63
2021/08/19 05:06:20;;;;;;;;;;;;;;;27.95;39.67;97306.31;5065506;28;1670;-64
2021/08/19 05:08:46;;;;;;;;;;;;;;;27.79;40.00;97304.25;5069110;28;1198;-65
2021/08/19 05:11:12;;;;;;;;;;;;;;;28.25;39.23;97310.59;5067789;28;1368;-62
2021/08/19 05:13:37;;;;;;;;;;;;;;;27.84;39.88;97311.78;5067025;28;1659;-63
2021/08/19 05:16:02;;;;;;;;;;;;;;;28.18;39.20;97308.66;5068120;28;1906;-64
2021/08/19 05:18:28;;;;;;;;;;;;;;;28.09;39.52;97307.69;5068910;28;1121;-63
2021/08/19 05:20:53;;;;;;;;;;;;;;;28.10;39.67;97307.53;5068729;28;1366;-65
2021/08/19 05:23:18;;;;;;;;;;;;;;;28.20;39.34;97311.97;5068439;28;1671;-63
2021/08/19 05:25:43;;;;;;;;;;;;;;;27.96;39.76;97310.63;5068717;28;1242;-64
2021/08/19 05:28:08;;;;;;;;;;;;;;;27.92;39.61;97317.22;5063357;28;1640;-63
2021/08/19 05:30:33;;;;;;;;;;;;;;;27.95;39.93;97308.97;5069117;28;1294;-64
2021/08/19 05:32:59;;;;;;;;;;;;;;;27.97;39.53;97316.81;5069045;28;1067;-64
2021/08/19 05:35:24;;;;;;;;;;;;;;;27.80;40.19;97308.56;5071664;28;1906;-64
2021/08/19 05:37:49;;;;;;;;;;;;;;;28.07;39.70;97305.19;5070279;28;1572;-64
2021/08/19 05:40:14;;;;;;;;;;;;;;;27.88;39.97;97309.66;5073492;28;1298;-64
2021/08/19 05:42:40;;;;;;;;;;;;;;;27.95;39.96;97311.63;5070883;28;1552;-63
2021/08/19 05:45:05;;;;;;;;;;;;;;;27.83;40.01;97309.28;5071832;28;1175;-64
2021/08/19 05:47:30;;;;;;;;;;;;;;;27.71;40.53;97308.56;5072359;28;1139;-65
2021/08/19 05:49:55;;;;;;;;;;;;;;;28.21;39.08;97313.69;5072844;28;1624;-64
2021/08/19 05:52:21;;;;;;;;;;;;;;;28.01;39.69;97312.88;5069855;28;1527;-63
2021/08/19 05:54:46;;;;;;;;;;;;;;;27.81;39.90;97310.25;5073262;28;1235;-64
2021/08/19 05:57:12;;;;;;;;;;;;;;;27.68;40.44;97314.16;5069289;28;1988;-63
2021/08/19 05:59:38;;;;;;;;;;;;;;;27.76;40.19;97311.66;5072625;28;1372;-64
2021/08/19 06:02:03;;;;;;;;;;;;;;;27.94;39.97;97311.75;5071535;28;1378;-63
2021/08/19 06:04:28;;;;;;;;;;;;;;;27.84;40.05;97314.44;5072284;28;1001;-62
2021/08/19 06:06:54;;;;;;;;;;;;;;;28.15;39.11;97315.09;5070091;28;1580;-64
2021/08/19 06:09:19;;;;;;;;;;;;;;;27.80;40.17;97321.81;5072999;28;1183;-63
2021/08/19 06:11:44;;;;;;;;;;;;;;;27.78;40.40;97325.59;5072120;28;1337;-64
2021/08/19 06:14:10;;;;;;;;;;;;;;;27.97;39.96;97314.16;5062269;28;1694;-64
2021/08/19 06:16:35;;;;;;;;;;;;;;;27.91;39.71;97323.50;5070193;28;1905;-63
2021/08/19 06:19:00;;;;;;;;;;;;;;;27.63;40.38;97319.84;5072943;28;1220;-64
2021/08/19 06:21:26;;;;;;;;;;;;;;;27.75;40.25;97323.22;5069512;28;1616;-64
2021/08/19 06:23:51;;;;;;;;;;;;;;;27.55;40.82;97323.19;5071241;28;1124;-63
2021/08/19 06:26:16;;;;;;;;;;;;;;;27.76;40.28;97327.56;5072423;28;1163;-63
2021/08/19 06:28:41;;;;;;;;;;;;;;;27.83;40.13;97323.38;5070415;28;1592;-63
2021/08/19 06:31:07;;;;;;;;;;;;;;;27.84;40.04;97326.84;5070782;28;1295;-64
2021/08/19 06:33:32;;;;;;;;;;;;;;;27.73;40.28;97327.84;5071156;28;1362;-63
2021/08/19 06:35:57;;;;;;;;;;;;;;;27.80;40.16;97332.41;5071052;28;2127;-64
2021/08/19 06:38:22;;;;;;;;;;;;;;;27.65;40.59;97323.22;5071690;28;1139;-64
2021/08/19 06:40:47;;;;;;;;;;;;;;;27.84;40.22;97334.81;5072845;28;1381;-63
2021/08/19 06:43:13;;;;;;;;;;;;;;;27.80;40.39;97332.41;5067298;28;1646;-63
2021/08/19 06:45:38;;;;;;;;;;;;;;;28.12;39.76;97330.41;5069755;28;1723;-64
2021/08/19 06:48:03;;;;;;;;;;;;;;;27.70;40.20;97328.94;5067856;28;1393;-65
2021/08/19 06:50:29;;;;;;;;;;;;;;;27.77;39.95;97329.22;5069637;28;1248;-64
2021/08/19 06:52:54;;;;;;;;;;;;;;;27.84;40.14;97332.16;5067392;28;1536;-64
2021/08/19 06:55:19;;;;;;;;;;;;;;;27.57;40.57;97332.81;5070064;28;1959;-63
2021/08/19 06:57:44;;;;;;;;;;;;;;;27.57;40.50;97335.44;5068660;28;1612;-63
2021/08/19 07:00:10;;;;;;;;;;;;;;;27.78;40.07;97331.72;5070304;28;1368;-63
2021/08/19 07:02:37;;;;;;;;;;;;;;;27.73;40.38;97338.44;5071130;28;1100;-64
2021/08/19 07:05:02;;;;;;;;;;;;;;;27.96;39.69;97334.50;5070500;28;1229;-62
2021/08/19 07:07:28;;;;;;;;;;;;;;;27.64;40.40;97336.56;5071221;28;1637;-64
2021/08/19 07:09:54;;;;;;;;;;;;;;;27.80;40.30;97335.06;5071153;28;1277;-65
2021/08/19 07:12:19;;;;;;;;;;;;;;;27.91;40.12;97327.97;5068619;28;1616;-62
2021/08/19 07:14:45;;;;;;;;;;;;;;;27.81;40.38;97330.63;5071480;28;1160;-65
2021/08/19 07:17:10;;;;;;;;;;;;;;;27.76;40.31;97330.19;5070581;28;1905;-62
2021/08/19 07:19:35;;;;;;;;;;;;;;;27.95;39.82;97332.81;5070947;28;1357;-63
2021/08/19 07:22:01;;;;;;;;;;;;;;;28.29;39.47;97337.66;5070296;28;1543;-63
2021/08/19 07:24:26;;;;;;;;;;;;;;;27.75;40.22;97339.13;5070377;28;1343;-64
2021/08/19 07:26:51;;;;;;;;;;;;;;;27.95;39.91;97330.16;5071430;28;1136;-63
2021/08/19 07:29:16;;;;;;;;;;;;;;;27.95;39.91;97338.13;5067203;28;1540;-65
2021/08/19 07:31:42;;;;;;;;;;;;;;;27.99;39.87;97336.03;5071136;28;1307;-64
2021/08/19 07:34:07;;;;;;;;;;;;;;;27.75;40.24;97344.44;5070700;28;1176;-64
2021/08/19 07:36:33;;;;;;;;;;;;;;;27.80;40.24;97335.06;5069471;28;1905;-64
2021/08/19 07:39:03;;;;;;;;;;;;;;;27.95;39.84;97335.47;5070757;28;1081;-63
2021/08/19 07:41:28;;;;;;;;;;;;;;;27.97;39.62;97333.53;5067969;28;1555;-63
2021/08/19 07:43:53;;;;;;;;;;;;;;;28.17;39.63;97344.09;5066830;28;1527;-64
2021/08/19 07:46:19;;;;;;;;;;;;;;;28.00;39.81;97338.53;5070761;28;1305;-64
2021/08/19 07:48:44;;;;;;;;;;;;;;;27.91;40.00;97344.69;5068405;28;1199;-65
2021/08/19 07:51:09;;;;;;;;;;;;;;;28.10;39.57;97344.66;5067622;28;1595;-64
2021/08/19 07:53:35;;;;;;;;;;;;;;;27.86;40.06;97352.22;5069682;28;1438;-63
2021/08/19 07:56:01;;;;;;;;;;;;;;;27.79;40.19;97353.75;5070366;28;1960;-64
2021/08/19 07:58:26;;;;;;;;;;;;;;;27.90;40.14;97350.16;5058945;28;1664;-63
2021/08/19 08:00:51;;;;;;;;;;;;;;;27.89;40.06;97351.97;5068363;28;1438;-65
2021/08/19 08:03:16;;;;;;;;;;;;;;;28.00;39.75;97356.28;5069207;28;1018;-64
2021/08/19 08:05:42;;;;;;;;;;;;;;;27.85;40.07;97347.91;5066289;28;1588;-63
2021/08/19 08:08:08;;;;;;;;;;;;;;;27.95;40.04;97361.97;5070829;28;1454;-63
2021/08/19 08:10:37;;;;;;;;;;;;;;;28.16;39.49;97356.53;5068219;28;1281;-63
2021/08/19 08:13:02;;;;;;;;;;;;;;;27.90;39.88;97353.63;5067753;28;1631;-63
2021/08/19 08:15:27;;;;;;;;;;;;;;;28.20;39.42;97355.28;5070308;28;1963;-64
2021/08/19 08:17:52;;;;;;;;;;;;;;;28.12;39.55;97354.28;5069344;28;1202;-64
2021/08/19 08:20:18;;;;;;;;;;;;;;;28.03;39.80;97351.50;5069097;28;1365;-63
2021/08/19 08:22:45;;;;;;;;;;;;;;;27.83;40.30;97362.28;5067815;28;1575;-64
2021/08/19 08:25:10;;;;;;;;;;;;;;;27.94;39.93;97362.13;5068432;28;1246;-63
2021/08/19 08:27:35;;;;;;;;;;;;;;;28.05;39.67;97362.00;5069430;28;1584;-63
2021/08/19 08:30:00;;;;;;;;;;;;;;;28.18;39.36;97357.22;5068920;28;1350;-64
2021/08/19 08:32:28;;;;;;;;;;;;;;;28.13;39.82;97364.78;5070225;28;1258;-64
2021/08/19 08:34:53;;;;;;;;;;;;;;;27.89;40.05;97362.56;5068596;28;1044;-62
2021/08/19 08:37:19;;;;;;;;;;;;;;;27.96;39.91;97368.94;5068522;28;1965;-62
2021/08/19 08:39:44;;;;;;;;;;;;;;;28.08;39.84;97373.13;5068163;28;1671;-64
2021/08/19 08:42:11;;;;;;;;;;;;;;;28.07;39.84;97370.63;5069030;28;1592;-65
2021/08/19 08:44:37;;;;;;;;;;;;;;;27.98;39.68;97366.19;5069120;28;1461;-64
2021/08/19 08:47:02;;;;;;;;;;;;;;;28.08;39.58;97372.31;5070276;28;1380;-64
2021/08/19 08:49:27;;;;;;;;;;;;;;;28.12;39.31;97375.50;5066589;28;1650;-64
2021/08/19 08:51:56;;;;;;;;;;;;;;;28.36;39.14;97368.81;5069150;28;1069;-64
2021/08/19 08:54:21;;;;;;;;;;;;;;;27.95;39.84;97364.63;5069002;28;1136;-64
2021/08/19 08:56:46;;;;;;;;;;;;;;;28.07;39.45;97367.97;5068725;28;1910;-63
2021/08/19 08:59:12;;;;;;;;;;;;;;;27.82;40.31;97372.03;5065274;28;1575;-64
2021/08/19 09:01:37;;;;;;;;;;;;;;;27.89;40.14;97373.16;5067605;28;1580;-64
2021/08/19 09:04:03;;;;;;;;;;;;;;;28.15;39.43;97368.13;5062675;28;1481;-64
2021/08/19 09:06:34;;;;;;;;;;;;;;;28.30;39.02;97361.41;5066952;28;1086;-63
2021/08/19 09:11:39;;;;;;;;;;;;;;;27.99;39.88;97365.19;5042642;28;1399;-61
2021/08/19 09:14:12;;;;;;;;;;;;;;;27.92;39.81;97362.28;5045098;28;1571;-61
2021/08/19 09:16:38;;;;;;;;;;;;;;;28.04;39.61;97363.81;5049048;28;1914;-62
2021/08/19 09:19:09;;;;;;;;;;;;;;;28.15;39.39;97360.16;5046058;28;1347;-61
2021/08/19 09:21:34;;;;;;;;;;;;;;;28.69;38.14;97360.47;5043443;28;1604;-62
2021/08/19 09:24:26;;;;;;;;;;;;;;;28.92;38.06;97359.16;5035522;28;1250;-62
2021/08/19 09:26:51;;;;;;;;;;;;;;;28.58;38.38;97358.81;5041061;28;1924;-62
2021/08/19 09:29:16;;;;;;;;;;;;;;;28.47;38.81;97359.00;5041518;28;1569;-61
2021/08/19 09:31:41;;;;;;;;;;;;;;;28.55;38.54;97351.16;5047531;28;1005;-61
2021/08/19 09:34:07;;;;;;;;;;;;;;;28.86;37.78;97347.25;5046009;28;1084;-60
2021/08/19 09:36:34;;;;;;;;;;;;;;;28.55;38.74;97352.00;5034420;28;1910;-60
2021/08/19 09:38:59;;;;;;;;;;;;;;;29.00;37.92;97348.63;5041748;28;1588;-61
2021/08/19 09:41:24;;;;;;;;;;;;;;;27.85;40.08;97347.91;5035754;28;1624;-60
2021/08/19 09:43:50;;;;;;;;;;;;;;;28.70;38.39;97348.88;5043947;28;1550;-60
2021/08/19 09:46:16;;;;;;;;;;;;;;;28.75;38.23;97357.22;5046885;28;1239;-60
2021/08/19 09:48:44;;;;;;;;;;;;;;;28.35;39.07;97356.50;5035896;28;1318;-59
2021/08/19 09:51:22;;;;;;;;;;;;;;;28.39;38.80;97348.28;5047248;28;1849;-61
2021/08/19 09:53:51;;;;;;;;;;;;;;;27.92;40.24;97354.31;5044147;28;1590;-61
2021/08/19 09:56:29;;;;;;;;;;;;;;;28.10;39.83;97349.97;5037063;28;1894;-60
2021/08/19 09:58:55;;;;;;;;;;;;;;;27.90;39.87;97356.28;5039936;28;1645;-61
2021/08/19 10:01:20;;;;;;;;;;;;;;;27.94;39.80;97355.00;5046753;28;1311;-59
2021/08/19 10:03:46;;;;;;;;;;;;;;;28.09;39.67;97348.28;5045114;28;1124;-61
2021/08/19 10:06:11;;;;;;;;;;;;;;;27.84;39.92;97348.06;5047142;28;1115;-61
2021/08/19 10:08:36;;;;;;;;;;;;;;;27.92;39.76;97350.84;5043801;28;1768;-61
2021/08/19 10:11:02;;;;;;;;;;;;;;;27.77;40.27;97348.59;5047057;28;1642;-61
2021/08/19 10:13:27;;;;;;;;;;;;;;;27.87;39.94;97348.59;5044781;28;1565;-59
2021/08/19 10:15:53;;;;;;;;;;;;;;;27.87;39.89;97347.75;5037553;28;1910;-60
2021/08/19 10:18:25;;;;;;;;;;;;;;;27.88;39.90;97344.13;5044779;28;1325;-60
2021/08/19 10:20:55;;;;;;;;;;;;;;;27.81;40.22;97347.38;5045360;28;1589;-60
2021/08/19 10:23:20;;;;;;;;;;;;;;;28.11;39.44;97345.50;5039662;28;1175;-60
2021/08/19 10:25:48;;;;;;;;;;;;;;;27.93;39.94;97355.16;5046641;28;1680;-61
2021/08/19 10:28:20;;;;;;;;;;;;;;;27.77;40.11;97347.75;5037279;28;1650;-60
2021/08/19 10:30:55;;;;;;;;;;;;;;;27.83;40.08;97341.91;5048205;28;1248;-60
2021/08/19 10:33:50;;;;;;;;;;;;;;;27.83;40.08;97343.72;5047141;28;1198;-60
2021/08/19 10:36:15;;;;;;;;;;;;;;;27.70;40.38;97351.94;5036840;28;1902;-60
2021/08/19 10:38:41;;;;;;;;;;;;;;;27.82;40.16;97340.25;5045681;28;1529;-60
2021/08/19 10:41:24;;;;;;;;;;;;;;;27.76;39.93;97340.81;5048905;28;1349;-61
2021/08/19 10:44:05;;;;;;;;;;;;;;;27.66;40.10;97338.13;5046212;28;2007;-61
2021/08/19 10:46:37;;;;;;;;;;;;;;;27.80;40.15;97340.34;5048798;28;1169;-60
2021/08/19 10:49:02;;;;;;;;;;;;;;;27.65;40.17;97339.09;5041812;28;1526;-61
2021/08/19 10:51:27;;;;;;;;;;;;;;;27.70;40.27;97336.06;5045823;28;1504;-62
2021/08/19 10:53:52;;;;;;;;;;;;;;;27.85;39.79;97331.16;5035261;28;1577;-61
2021/08/19 10:56:38;;;;;;;;;;;;;;;27.83;40.09;97336.63;5035712;28;1973;-61
2021/08/19 10:59:22;;;;;;;;;;;;;;;27.84;39.90;97332.97;5047599;28;1565;-61
2021/08/19 11:01:50;;;;;;;;;;;;;;;27.84;39.89;97332.97;5049020;28;1081;-61
2021/08/19 11:04:35;;;;;;;;;;;;;;;27.89;39.72;97335.22;5049732;28;910;-61
2021/08/19 11:07:01;;;;;;;;;;;;;;;27.93;39.66;97328.66;5040802;28;1523;-60
2021/08/19 11:09:27;;;;;;;;;;;;;;;27.88;39.89;97333.53;5046395;28;1332;-60
2021/08/19 11:11:52;;;;;;;;;;;;;;;28.39;38.76;97330.53;5047526;28;1100;-60
2021/08/19 11:14:19;;;;;;;;;;;;;;;27.91;39.85;97331.44;5046118;28;1636;-60
2021/08/19 11:16:52;;;;;;;;;;;;;;;28.18;39.40;97324.56;4986574;28;1937;-60
2021/08/19 11:19:27;;;;;;;;;;;;;;;27.96;39.64;97331.84;5048236;28;1331;-62
2021/08/19 11:21:54;;;;;;;;;;;;;;;28.31;38.96;97322.47;5046928;28;1593;-61
2021/08/19 11:24:19;;;;;;;;;;;;;;;28.08;39.38;97329.88;5048250;28;1160;-61
2021/08/19 11:27:20;;;;;;;;;;;;;;;27.93;39.59;97323.34;5048272;28;1159;-61
2021/08/19 11:29:45;;;;;;;;;;;;;;;27.98;39.62;97331.72;4981638;28;1351;-60
2021/08/19 11:32:11;;;;;;;;;;;;;;;27.90;39.86;97321.81;5033539;28;1209;-59
2021/08/19 11:34:37;;;;;;;;;;;;;;;27.91;39.86;97320.84;5047273;28;955;-61
2021/08/19 11:37:02;;;;;;;;;;;;;;;27.87;39.69;97327.38;5046892;28;1957;-61
2021/08/19 11:39:28;;;;;;;;;;;;;;;27.97;39.62;97330.88;5047699;28;1262;-60
2021/08/19 11:41:54;;;;;;;;;;;;;;;28.01;39.39;97318.19;5048172;28;1288;-61
2021/08/19 11:44:19;;;;;;;;;;;;;;;28.04;39.74;97324.03;5045931;28;1557;-61
2021/08/19 11:46:44;;;;;;;;;;;;;;;27.97;39.50;97322.94;5047945;28;1120;-61
2021/08/19 11:49:10;;;;;;;;;;;;;;;27.97;39.57;97327.41;5037231;28;1587;-60
2021/08/19 11:51:36;;;;;;;;;;;;;;;28.04;39.47;97333.78;5048061;28;1188;-60
2021/08/19 11:54:05;;;;;;;;;;;;;;;27.80;39.95;97327.13;5047231;28;1672;-60
2021/08/19 11:56:37;;;;;;;;;;;;;;;27.89;39.88;97324.63;5045988;28;1967;-60
2021/08/19 11:59:03;;;;;;;;;;;;;;;28.02;39.70;97330.44;5043703;28;1558;-60
2021/08/19 12:01:30;;;;;;;;;;;;;;;27.91;39.94;97327.97;5045897;28;1194;-61
2021/08/19 12:03:55;;;;;;;;;;;;;;;27.87;40.07;97332.69;5045690;28;1116;-62
2021/08/19 12:06:21;;;;;;;;;;;;;;;27.93;39.63;97332.13;5044357;28;1593;-60
2021/08/19 12:08:53;;;;;;;;;;;;;;;27.93;39.72;97344.56;5035075;28;1531;-61
2021/08/19 12:11:19;;;;;;;;;;;;;;;27.93;39.80;97347.19;5046448;28;1338;-61
2021/08/19 12:13:44;;;;;;;;;;;;;;;27.98;39.64;97340.50;5045139;28;1594;-59
2021/08/19 12:16:09;;;;;;;;;;;;;;;28.69;38.07;97340.09;5033855;28;1977;-59
2021/08/19 12:18:35;;;;;;;;;;;;;;;28.75;38.04;97346.59;5033867;28;1117;-60
2021/08/19 12:21:16;;;;;;;;;;;;;;;29.08;37.27;97354.03;5043620;28;1610;-59
2021/08/19 12:23:42;;;;;;;;;;;;;;;29.25;37.22;97348.91;5045798;28;1207;-61
2021/08/19 12:26:08;;;;;;;;;;;;;;;29.25;37.22;97346.25;5045528;28;1112;-60
2021/08/19 12:28:33;;;;;;;;;;;;;;;29.18;37.34;97344.19;5033709;28;1587;-59
2021/08/19 12:31:02;;;;;;;;;;;;;;;28.33;38.84;97339.91;5045552;28;1350;-59
2021/08/19 12:33:29;;;;;;;;;;;;;;;27.76;40.20;97338.16;5045842;28;1202;-58
2021/08/19 12:36:12;;;;;;;;;;;;;;;27.73;40.29;97338.44;5043533;28;1918;-59
2021/08/19 12:38:38;;;;;;;;;;;;;;;27.67;40.49;97333.69;5045336;28;1256;-59
2021/08/19 12:41:18;;;;;;;;;;;;;;;27.73;40.40;97341.94;5045209;28;1336;-59
2021/08/19 12:43:45;;;;;;;;;;;;;;;27.69;40.43;97329.91;5044191;28;1600;-59
2021/08/19 12:46:11;;;;;;;;;;;;;;;27.72;40.17;97324.31;5046215;28;1160;-59
2021/08/19 12:48:36;;;;;;;;;;;;;;;27.90;39.93;97318.34;5036869;28;1321;-59
2021/08/19 12:51:18;;;;;;;;;;;;;;;28.14;39.25;97324.03;5037011;28;2015;-60
2021/08/19 12:54:03;;;;;;;;;;;;;;;28.42;38.72;97321.47;5047114;28;1152;-59
2021/08/19 12:56:28;;;;;;;;;;;;;;;28.01;39.53;97319.00;5047305;28;1902;-60